sensor_id;sensor_type;location;lat;lon;timestamp;pressure;altitude;pressure_sealevel;temperature;humidity
34931;BME280;21134;49.646;8.560;2022-08-05T00:01:43;100238.34;;;28.26;48.10
34931;BME280;21134;49.646;8.560;2022-08-05T00:04:09;100249.50;;;28.18;48.54
34931;BME280;21134;49.646;8.560;2022-08-05T00:06:36;100248.78;;;28.05;49.95
34931;BME280;21134;49.646;8.560;2022-08-05T00:09:04;100245.53;;;28.01;50.87
34931;BME280;21134;49.646;8.560;2022-08-05T00:11:31;100252.13;;;27.96;51.17
34931;BME280;21134;49.646;8.560;2022-08-05T00:13:57;100260.72;;;27.87;51.50
34931;BME280;21134;49.646;8.560;2022-08-05T00:16:24;100255.56;;;27.85;52.33
34931;BME280;21134;49.646;8.560;2022-08-05T00:18:50;100236.41;;;27.61;53.28
34931;BME280;21134;49.646;8.560;2022-08-05T00:21:17;100250.47;;;27.59;53.70
34931;BME280;21134;49.646;8.560;2022-08-05T00:23:45;100251.19;;;27.50;54.79
34931;BME280;21134;49.646;8.560;2022-08-05T00:26:14;100251.31;;;27.49;55.28
34931;BME280;21134;49.646;8.560;2022-08-05T00:28:41;100251.56;;;27.22;55.99
34931;BME280;21134;49.646;8.560;2022-08-05T00:31:07;100243.25;;;27.28;56.00
34931;BME280;21134;49.646;8.560;2022-08-05T00:33:34;100250.19;;;27.29;55.96
34931;BME280;21134;49.646;8.560;2022-08-05T00:36:01;100242.38;;;27.16;56.51
34931;BME280;21134;49.646;8.560;2022-08-05T00:38:27;100243.44;;;27.13;56.88
34931;BME280;21134;49.646;8.560;2022-08-05T00:40:55;100235.63;;;27.12;56.69
34931;BME280;21134;49.646;8.560;2022-08-05T00:43:23;100227.03;;;27.10;56.77
34931;BME280;21134;49.646;8.560;2022-08-05T00:45:50;100231.34;;;27.11;57.07
34931;BME280;21134;49.646;8.560;2022-08-05T00:48:19;100233.59;;;27.04;57.13
34931;BME280;21134;49.646;8.560;2022-08-05T00:50:48;100237.72;;;26.96;57.00
34931;BME280;21134;49.646;8.560;2022-08-05T00:53:16;100235.44;;;26.91;57.59
34931;BME280;21134;49.646;8.560;2022-08-05T00:55:43;100238.31;;;26.99;57.27
34931;BME280;21134;49.646;8.560;2022-08-05T00:58:11;100238.00;;;27.04;56.91
34931;BME280;21134;49.646;8.560;2022-08-05T01:00:43;100249.34;;;27.04;56.74
34931;BME280;21134;49.646;8.560;2022-08-05T01:03:10;100234.53;;;27.03;57.11
34931;BME280;21134;49.646;8.560;2022-08-05T01:05:37;100223.44;;;27.00;57.05
34931;BME280;21134;49.646;8.560;2022-08-05T01:08:04;100209.66;;;26.96;57.26
34931;BME280;21134;49.646;8.560;2022-08-05T01:10:35;100179.47;;;26.90;57.73
34931;BME280;21134;49.646;8.560;2022-08-05T01:13:09;100170.59;;;26.80;57.92
34931;BME280;21134;49.646;8.560;2022-08-05T01:15:44;100168.03;;;26.67;58.44
34931;BME280;21134;49.646;8.560;2022-08-05T01:18:15;100182.44;;;26.62;58.71
34931;BME280;21134;49.646;8.560;2022-08-05T01:20:53;100193.72;;;26.75;58.29
34931;BME280;21134;49.646;8.560;2022-08-05T01:23:37;100194.94;;;26.82;57.98
34931;BME280;21134;49.646;8.560;2022-08-05T01:26:26;100200.31;;;26.81;58.19
34931;BME280;21134;49.646;8.560;2022-08-05T01:29:02;100177.47;;;26.70;58.28
34931;BME280;21134;49.646;8.560;2022-08-05T01:31:33;100181.16;;;26.67;58.23
34931;BME280;21134;49.646;8.560;2022-08-05T01:34:06;100171.22;;;26.60;58.63
34931;BME280;21134;49.646;8.560;2022-08-05T01:36:39;100164.31;;;26.59;58.57
34931;BME280;21134;49.646;8.560;2022-08-05T01:39:07;100153.00;;;26.70;58.52
34931;BME280;21134;49.646;8.560;2022-08-05T01:41:34;100153.00;;;26.70;58.10
34931;BME280;21134;49.646;8.560;2022-08-05T01:44:05;100152.63;;;26.63;58.81
34931;BME280;21134;49.646;8.560;2022-08-05T01:46:33;100151.34;;;26.69;57.79
34931;BME280;21134;49.646;8.560;2022-08-05T01:49:02;100143.84;;;26.75;57.99
34931;BME280;21134;49.646;8.560;2022-08-05T01:51:30;100134.16;;;26.76;57.79
34931;BME280;21134;49.646;8.560;2022-08-05T01:54:01;100126.81;;;26.81;57.63
34931;BME280;21134;49.646;8.560;2022-08-05T01:56:29;100109.50;;;26.78;57.52
34931;BME280;21134;49.646;8.560;2022-08-05T01:58:57;100108.72;;;26.65;57.70
34931;BME280;21134;49.646;8.560;2022-08-05T02:01:29;100094.13;;;26.61;57.82
34931;BME280;21134;49.646;8.560;2022-08-05T02:03:58;100097.25;;;26.55;57.67
34931;BME280;21134;49.646;8.560;2022-08-05T02:06:25;100102.16;;;26.59;57.79
34931;BME280;21134;49.646;8.560;2022-08-05T02:08:52;100100.13;;;26.63;57.62
34931;BME280;21134;49.646;8.560;2022-08-05T02:11:19;100113.03;;;26.66;57.20
34931;BME280;21134;49.646;8.560;2022-08-05T02:13:52;100114.47;;;26.70;57.21
34931;BME280;21134;49.646;8.560;2022-08-05T02:16:23;100130.13;;;26.72;57.13
34931;BME280;21134;49.646;8.560;2022-08-05T02:18:55;100150.88;;;26.75;56.87
34931;BME280;21134;49.646;8.560;2022-08-05T02:21:25;100162.09;;;26.77;56.90
34931;BME280;21134;49.646;8.560;2022-08-05T02:23:56;100173.94;;;26.82;56.96
34931;BME280;21134;49.646;8.560;2022-08-05T02:26:27;100176.09;;;26.77;57.26
34931;BME280;21134;49.646;8.560;2022-08-05T02:28:59;100193.59;;;26.77;57.18
34931;BME280;21134;49.646;8.560;2022-08-05T02:31:27;100190.88;;;26.78;57.33
34931;BME280;21134;49.646;8.560;2022-08-05T02:33:58;100199.72;;;26.77;56.76
34931;BME280;21134;49.646;8.560;2022-08-05T02:36:28;100198.84;;;26.77;57.27
34931;BME280;21134;49.646;8.560;2022-08-05T02:38:56;100195.59;;;26.73;57.44
34931;BME280;21134;49.646;8.560;2022-08-05T02:41:25;100194.91;;;26.71;57.06
34931;BME280;21134;49.646;8.560;2022-08-05T02:43:54;100194.91;;;26.71;56.97
34931;BME280;21134;49.646;8.560;2022-08-05T02:46:22;100200.47;;;26.66;57.11
34931;BME280;21134;49.646;8.560;2022-08-05T02:48:49;100214.66;;;26.64;56.80
34931;BME280;21134;49.646;8.560;2022-08-05T02:51:18;100226.84;;;26.65;57.45
34931;BME280;21134;49.646;8.560;2022-08-05T02:53:44;100211.84;;;26.54;57.70
34931;BME280;21134;49.646;8.560;2022-08-05T02:56:13;100208.19;;;26.57;56.98
34931;BME280;21134;49.646;8.560;2022-08-05T02:58:41;100199.34;;;26.58;56.85
34931;BME280;21134;49.646;8.560;2022-08-05T03:01:12;100194.66;;;26.50;57.41
34931;BME280;21134;49.646;8.560;2022-08-05T03:03:42;100189.38;;;26.63;56.96
34931;BME280;21134;49.646;8.560;2022-08-05T03:06:11;100183.13;;;26.53;57.04
34931;BME280;21134;49.646;8.560;2022-08-05T03:08:40;100180.38;;;26.41;57.24
34931;BME280;21134;49.646;8.560;2022-08-05T03:11:18;100207.97;;;26.47;57.63
34931;BME280;21134;49.646;8.560;2022-08-05T03:13:45;100209.56;;;26.50;57.87
34931;BME280;21134;49.646;8.560;2022-08-05T03:16:12;100219.53;;;26.44;57.89
34931;BME280;21134;49.646;8.560;2022-08-05T03:18:39;100222.97;;;26.45;57.71
34931;BME280;21134;49.646;8.560;2022-08-05T03:21:06;100227.19;;;26.48;57.82
34931;BME280;21134;49.646;8.560;2022-08-05T03:23:33;100238.53;;;26.48;57.89
34931;BME280;21134;49.646;8.560;2022-08-05T03:26:02;100243.34;;;26.41;58.31
34931;BME280;21134;49.646;8.560;2022-08-05T03:28:29;100231.09;;;26.42;58.46
34931;BME280;21134;49.646;8.560;2022-08-05T03:30:57;100215.66;;;26.37;59.55
34931;BME280;21134;49.646;8.560;2022-08-05T03:33:25;100196.28;;;26.27;59.93
34931;BME280;21134;49.646;8.560;2022-08-05T03:35:54;100197.47;;;26.23;63.22
34931;BME280;21134;49.646;8.560;2022-08-05T03:38:21;100237.66;;;26.24;61.16
34931;BME280;21134;49.646;8.560;2022-08-05T03:40:48;100272.03;;;26.32;61.11
34931;BME280;21134;49.646;8.560;2022-08-05T03:43:16;100299.63;;;26.50;59.01
34931;BME280;21134;49.646;8.560;2022-08-05T03:45:42;100310.44;;;26.46;58.81
34931;BME280;21134;49.646;8.560;2022-08-05T03:48:09;100330.38;;;26.48;58.89
34931;BME280;21134;49.646;8.560;2022-08-05T03:50:42;100287.06;;;26.17;56.29
34931;BME280;21134;49.646;8.560;2022-08-05T03:53:13;100293.00;;;26.32;55.97
34931;BME280;21134;49.646;8.560;2022-08-05T03:55:43;100341.41;;;26.28;57.79
34931;BME280;21134;49.646;8.560;2022-08-05T03:58:16;100346.88;;;26.25;59.67
34931;BME280;21134;49.646;8.560;2022-08-05T04:00:45;100343.69;;;26.19;60.25
34931;BME280;21134;49.646;8.560;2022-08-05T04:03:12;100338.38;;;25.95;60.91
34931;BME280;21134;49.646;8.560;2022-08-05T04:05:41;100344.34;;;25.85;62.22
34931;BME280;21134;49.646;8.560;2022-08-05T04:08:10;100345.09;;;25.60;64.39
34931;BME280;21134;49.646;8.560;2022-08-05T04:10:36;100344.03;;;25.49;64.23
34931;BME280;21134;49.646;8.560;2022-08-05T04:13:05;100347.28;;;25.26;66.68
34931;BME280;21134;49.646;8.560;2022-08-05T04:15:33;100341.34;;;25.24;67.19
34931;BME280;21134;49.646;8.560;2022-08-05T04:18:00;100350.91;;;24.96;68.85
34931;BME280;21134;49.646;8.560;2022-08-05T04:20:27;100363.09;;;24.83;68.11
34931;BME280;21134;49.646;8.560;2022-08-05T04:22:53;100378.41;;;24.75;68.57
34931;BME280;21134;49.646;8.560;2022-08-05T04:25:20;100397.84;;;24.85;67.76
34931;BME280;21134;49.646;8.560;2022-08-05T04:27:47;100405.63;;;24.87;67.91
34931;BME280;21134;49.646;8.560;2022-08-05T04:30:13;100412.44;;;24.75;69.70
34931;BME280;21134;49.646;8.560;2022-08-05T04:32:41;100412.91;;;24.67;70.24
34931;BME280;21134;49.646;8.560;2022-08-05T04:35:08;100413.84;;;24.66;70.97
34931;BME280;21134;49.646;8.560;2022-08-05T04:37:35;100438.31;;;24.65;70.38
34931;BME280;21134;49.646;8.560;2022-08-05T04:40:02;100442.34;;;24.56;71.58
34931;BME280;21134;49.646;8.560;2022-08-05T04:42:28;100444.94;;;24.56;70.60
34931;BME280;21134;49.646;8.560;2022-08-05T04:44:55;100452.72;;;24.58;70.54
34931;BME280;21134;49.646;8.560;2022-08-05T04:47:21;100452.53;;;24.61;70.46
34931;BME280;21134;49.646;8.560;2022-08-05T04:49:49;100452.91;;;24.55;70.19
34931;BME280;21134;49.646;8.560;2022-08-05T04:52:16;100451.78;;;24.45;71.04
34931;BME280;21134;49.646;8.560;2022-08-05T04:54:42;100445.88;;;24.41;70.88
34931;BME280;21134;49.646;8.560;2022-08-05T04:57:09;100444.75;;;24.45;71.38
34931;BME280;21134;49.646;8.560;2022-08-05T04:59:35;100456.16;;;24.44;71.35
34931;BME280;21134;49.646;8.560;2022-08-05T05:02:02;100462.97;;;24.47;72.10
34931;BME280;21134;49.646;8.560;2022-08-05T05:04:28;100456.28;;;24.57;71.23
34931;BME280;21134;49.646;8.560;2022-08-05T05:06:56;100452.72;;;24.58;70.14
34931;BME280;21134;49.646;8.560;2022-08-05T05:09:23;100460.94;;;24.52;71.17
34931;BME280;21134;49.646;8.560;2022-08-05T05:11:49;100452.50;;;24.47;71.52
34931;BME280;21134;49.646;8.560;2022-08-05T05:14:16;100462.25;;;24.45;71.79
34931;BME280;21134;49.646;8.560;2022-08-05T05:16:42;100455.59;;;24.53;71.99
34931;BME280;21134;49.646;8.560;2022-08-05T05:19:09;100463.84;;;24.62;71.68
34931;BME280;21134;49.646;8.560;2022-08-05T05:21:35;100463.47;;;24.68;71.42
34931;BME280;21134;49.646;8.560;2022-08-05T05:24:04;100480.59;;;24.73;70.95
34931;BME280;21134;49.646;8.560;2022-08-05T05:26:30;100514.13;;;24.81;70.65
34931;BME280;21134;49.646;8.560;2022-08-05T05:28:57;100521.44;;;24.90;69.33
34931;BME280;21134;49.646;8.560;2022-08-05T05:31:24;100512.28;;;24.97;68.94
34931;BME280;21134;49.646;8.560;2022-08-05T05:33:50;100477.88;;;25.03;69.10
34931;BME280;21134;49.646;8.560;2022-08-05T05:36:17;100480.13;;;24.95;69.59
34931;BME280;21134;49.646;8.560;2022-08-05T05:38:43;100459.91;;;24.97;68.42
34931;BME280;21134;49.646;8.560;2022-08-05T05:41:11;100469.84;;;24.92;68.04
34931;BME280;21134;49.646;8.560;2022-08-05T05:43:37;100470.56;;;24.94;68.42
34931;BME280;21134;49.646;8.560;2022-08-05T05:46:04;100465.44;;;24.93;68.05
34931;BME280;21134;49.646;8.560;2022-08-05T05:48:31;100452.44;;;24.91;67.86
34931;BME280;21134;49.646;8.560;2022-08-05T05:50:57;100451.03;;;25.00;67.20
34931;BME280;21134;49.646;8.560;2022-08-05T05:53:24;100439.91;;;24.96;66.92
34931;BME280;21134;49.646;8.560;2022-08-05T05:55:50;100447.47;;;25.01;67.40
34931;BME280;21134;49.646;8.560;2022-08-05T05:58:18;100457.50;;;25.09;66.55
34931;BME280;21134;49.646;8.560;2022-08-05T06:00:45;100453.72;;;25.27;65.98
34931;BME280;21134;49.646;8.560;2022-08-05T06:03:11;100448.97;;;25.34;65.77
34931;BME280;21134;49.646;8.560;2022-08-05T06:05:38;100446.59;;;25.43;65.97
34931;BME280;21134;49.646;8.560;2022-08-05T06:08:04;100442.91;;;25.60;65.51
34931;BME280;21134;49.646;8.560;2022-08-05T06:10:31;100429.28;;;25.68;64.76
34931;BME280;21134;49.646;8.560;2022-08-05T06:12:59;100428.66;;;25.64;64.57
34931;BME280;21134;49.646;8.560;2022-08-05T06:15:27;100406.09;;;25.62;64.18
34931;BME280;21134;49.646;8.560;2022-08-05T06:17:53;100405.06;;;25.64;63.77
34931;BME280;21134;49.646;8.560;2022-08-05T06:20:20;100399.03;;;25.77;63.90
34931;BME280;21134;49.646;8.560;2022-08-05T06:22:47;100398.66;;;25.95;62.27
34931;BME280;21134;49.646;8.560;2022-08-05T06:25:13;100396.28;;;26.05;61.93
34931;BME280;21134;49.646;8.560;2022-08-05T06:27:40;100380.75;;;26.02;62.29
34931;BME280;21134;49.646;8.560;2022-08-05T06:30:08;100391.97;;;26.04;63.19
34931;BME280;21134;49.646;8.560;2022-08-05T06:32:41;100398.34;;;26.00;62.54
34931;BME280;21134;49.646;8.560;2022-08-05T06:35:09;100393.44;;;26.08;62.76
34931;BME280;21134;49.646;8.560;2022-08-05T06:37:35;100398.91;;;26.18;61.94
34931;BME280;21134;49.646;8.560;2022-08-05T06:40:03;100394.41;;;26.20;61.40
34931;BME280;21134;49.646;8.560;2022-08-05T06:42:29;100393.13;;;26.26;61.18
34931;BME280;21134;49.646;8.560;2022-08-05T06:44:57;100392.72;;;26.44;60.02
34931;BME280;21134;49.646;8.560;2022-08-05T06:47:23;100394.09;;;26.63;59.36
34931;BME280;21134;49.646;8.560;2022-08-05T06:49:51;100402.75;;;26.89;59.00
34931;BME280;21134;49.646;8.560;2022-08-05T06:52:18;100404.09;;;27.07;58.39
34931;BME280;21134;49.646;8.560;2022-08-05T06:54:44;100417.22;;;27.20;57.72
34931;BME280;21134;49.646;8.560;2022-08-05T06:57:11;100417.84;;;27.24;56.97
34931;BME280;21134;49.646;8.560;2022-08-05T06:59:39;100438.31;;;27.31;56.72
34931;BME280;21134;49.646;8.560;2022-08-05T07:02:06;100448.09;;;27.53;55.82
34931;BME280;21134;49.646;8.560;2022-08-05T07:04:33;100441.91;;;27.54;55.74
34931;BME280;21134;49.646;8.560;2022-08-05T07:07:01;100456.88;;;27.65;56.23
34931;BME280;21134;49.646;8.560;2022-08-05T07:09:27;100460.72;;;27.72;55.96
34931;BME280;21134;49.646;8.560;2022-08-05T07:11:54;100474.75;;;27.73;55.27
34931;BME280;21134;49.646;8.560;2022-08-05T07:14:21;100466.00;;;27.72;55.62
34931;BME280;21134;49.646;8.560;2022-08-05T07:17:05;100483.56;;;27.72;56.07
34931;BME280;21134;49.646;8.560;2022-08-05T07:19:31;100495.00;;;27.84;52.70
34931;BME280;21134;49.646;8.560;2022-08-05T07:21:58;100489.75;;;27.84;52.31
34931;BME280;21134;49.646;8.560;2022-08-05T07:24:26;100488.31;;;27.79;51.82
34931;BME280;21134;49.646;8.560;2022-08-05T07:26:52;100504.47;;;27.86;51.41
34931;BME280;21134;49.646;8.560;2022-08-05T07:29:19;100494.63;;;27.77;52.11
34931;BME280;21134;49.646;8.560;2022-08-05T07:31:45;100502.25;;;27.56;52.50
34931;BME280;21134;49.646;8.560;2022-08-05T07:34:12;100512.75;;;27.56;51.92
34931;BME280;21134;49.646;8.560;2022-08-05T07:36:38;100529.63;;;27.41;51.93
34931;BME280;21134;49.646;8.560;2022-08-05T07:39:06;100526.06;;;27.42;51.63
34931;BME280;21134;49.646;8.560;2022-08-05T07:41:34;100513.44;;;27.34;51.46
34931;BME280;21134;49.646;8.560;2022-08-05T07:44:02;100498.84;;;27.30;51.64
34931;BME280;21134;49.646;8.560;2022-08-05T07:46:31;100502.75;;;27.24;51.79
34931;BME280;21134;49.646;8.560;2022-08-05T07:49:00;100483.72;;;27.21;52.13
34931;BME280;21134;49.646;8.560;2022-08-05T07:51:26;100472.50;;;27.06;52.23
34931;BME280;21134;49.646;8.560;2022-08-05T07:53:53;100475.84;;;27.21;52.33
34931;BME280;21134;49.646;8.560;2022-08-05T07:56:20;100459.88;;;27.11;52.06
34931;BME280;21134;49.646;8.560;2022-08-05T07:58:48;100464.72;;;27.17;51.96
34931;BME280;21134;49.646;8.560;2022-08-05T08:01:14;100476.06;;;27.18;51.76
34931;BME280;21134;49.646;8.560;2022-08-05T08:03:41;100482.56;;;26.99;52.54
34931;BME280;21134;49.646;8.560;2022-08-05T08:06:08;100478.63;;;26.94;53.09
34931;BME280;21134;49.646;8.560;2022-08-05T08:08:34;100474.06;;;26.96;52.91
34931;BME280;21134;49.646;8.560;2022-08-05T08:11:01;100490.34;;;27.01;53.12
34931;BME280;21134;49.646;8.560;2022-08-05T08:13:27;100476.91;;;27.05;52.83
34931;BME280;21134;49.646;8.560;2022-08-05T08:15:55;100477.84;;;27.04;52.75
34931;BME280;21134;49.646;8.560;2022-08-05T08:18:22;100471.75;;;27.04;53.13
34931;BME280;21134;49.646;8.560;2022-08-05T08:20:48;100491.59;;;27.08;53.40
34931;BME280;21134;49.646;8.560;2022-08-05T08:23:15;100504.44;;;27.12;53.30
34931;BME280;21134;49.646;8.560;2022-08-05T08:25:43;100553.69;;;27.09;53.61
34931;BME280;21134;49.646;8.560;2022-08-05T08:28:09;100555.28;;;27.24;52.45
34931;BME280;21134;49.646;8.560;2022-08-05T08:30:36;100529.84;;;26.99;53.39
34931;BME280;21134;49.646;8.560;2022-08-05T08:33:07;100532.81;;;26.95;56.14
34931;BME280;21134;49.646;8.560;2022-08-05T08:35:35;100529.84;;;26.86;58.62
34931;BME280;21134;49.646;8.560;2022-08-05T08:38:02;100523.56;;;26.63;60.79
34931;BME280;21134;49.646;8.560;2022-08-05T08:40:30;100512.50;;;26.46;60.66
34931;BME280;21134;49.646;8.560;2022-08-05T08:42:58;100504.47;;;26.21;62.50
34931;BME280;21134;49.646;8.560;2022-08-05T08:45:25;100514.47;;;26.02;64.87
34931;BME280;21134;49.646;8.560;2022-08-05T08:47:53;100507.13;;;25.80;64.96
34931;BME280;21134;49.646;8.560;2022-08-05T08:50:24;100521.66;;;25.71;68.74
34931;BME280;21134;49.646;8.560;2022-08-05T08:52:53;100526.38;;;25.52;70.46
34931;BME280;21134;49.646;8.560;2022-08-05T08:55:22;100523.41;;;25.44;70.52
34931;BME280;21134;49.646;8.560;2022-08-05T08:57:48;100525.78;;;25.34;69.76
34931;BME280;21134;49.646;8.560;2022-08-05T09:00:15;100524.66;;;25.24;69.53
34931;BME280;21134;49.646;8.560;2022-08-05T09:02:43;100501.38;;;25.19;69.42
34931;BME280;21134;49.646;8.560;2022-08-05T09:05:11;100468.97;;;25.06;68.80
34931;BME280;21134;49.646;8.560;2022-08-05T09:07:40;100447.50;;;24.87;68.94
34931;BME280;21134;49.646;8.560;2022-08-05T09:10:07;100448.44;;;24.86;70.67
34931;BME280;21134;49.646;8.560;2022-08-05T09:12:34;100456.00;;;24.90;73.91
34931;BME280;21134;49.646;8.560;2022-08-05T09:15:01;100448.22;;;25.03;73.81
34931;BME280;21134;49.646;8.560;2022-08-05T09:17:29;100468.59;;;25.26;74.24
34931;BME280;21134;49.646;8.560;2022-08-05T09:19:55;100470.66;;;25.36;73.04
34931;BME280;21134;49.646;8.560;2022-08-05T09:22:22;100470.53;;;25.51;73.59
34931;BME280;21134;49.646;8.560;2022-08-05T09:24:57;100472.59;;;25.88;68.54
34931;BME280;21134;49.646;8.560;2022-08-05T09:27:31;100481.66;;;26.09;66.63
34931;BME280;21134;49.646;8.560;2022-08-05T09:29:59;100482.13;;;26.29;66.43
34931;BME280;21134;49.646;8.560;2022-08-05T09:32:33;100473.13;;;26.46;64.96
34931;BME280;21134;49.646;8.560;2022-08-05T09:35:08;100456.03;;;26.53;61.27
34931;BME280;21134;49.646;8.560;2022-08-05T09:37:37;100459.41;;;26.55;61.29
34931;BME280;21134;49.646;8.560;2022-08-05T09:40:07;100471.25;;;26.60;61.75
34931;BME280;21134;49.646;8.560;2022-08-05T09:42:38;100468.41;;;26.76;60.97
34931;BME280;21134;49.646;8.560;2022-08-05T09:45:06;100471.34;;;26.97;58.30
34931;BME280;21134;49.646;8.560;2022-08-05T09:47:34;100483.50;;;27.11;58.91
34931;BME280;21134;49.646;8.560;2022-08-05T09:50:06;100494.13;;;27.35;60.40
34931;BME280;21134;49.646;8.560;2022-08-05T09:52:34;100489.88;;;27.69;58.42
34931;BME280;21134;49.646;8.560;2022-08-05T09:55:04;100513.47;;;27.95;59.38
34931;BME280;21134;49.646;8.560;2022-08-05T09:57:35;100514.13;;;28.10;58.82
34931;BME280;21134;49.646;8.560;2022-08-05T10:00:06;100514.75;;;28.13;58.40
34931;BME280;21134;49.646;8.560;2022-08-05T10:02:36;100503.22;;;28.38;59.07
34931;BME280;21134;49.646;8.560;2022-08-05T10:05:10;100489.53;;;28.57;56.05
34931;BME280;21134;49.646;8.560;2022-08-05T10:07:45;100489.69;;;28.78;51.73
34931;BME280;21134;49.646;8.560;2022-08-05T10:10:12;100490.63;;;28.77;49.21
34931;BME280;21134;49.646;8.560;2022-08-05T10:12:42;100500.59;;;28.38;50.59
34931;BME280;21134;49.646;8.560;2022-08-05T10:15:13;100498.03;;;28.61;51.50
34931;BME280;21134;49.646;8.560;2022-08-05T10:17:40;100498.66;;;28.87;50.67
34931;BME280;21134;49.646;8.560;2022-08-05T10:20:07;100505.03;;;29.07;48.30
34931;BME280;21134;49.646;8.560;2022-08-05T10:22:38;100509.00;;;29.01;49.30
34931;BME280;21134;49.646;8.560;2022-08-05T10:25:05;100514.25;;;29.24;49.18
34931;BME280;21134;49.646;8.560;2022-08-05T10:27:32;100520.84;;;29.18;48.07
34931;BME280;21134;49.646;8.560;2022-08-05T10:30:02;100518.34;;;29.16;47.84
34931;BME280;21134;49.646;8.560;2022-08-05T10:32:30;100525.88;;;29.21;48.36
34931;BME280;21134;49.646;8.560;2022-08-05T10:34:57;100521.19;;;29.25;48.03
34931;BME280;21134;49.646;8.560;2022-08-05T10:37:25;100525.16;;;29.19;48.54
34931;BME280;21134;49.646;8.560;2022-08-05T10:39:55;100531.13;;;29.10;49.04
34931;BME280;21134;49.646;8.560;2022-08-05T10:42:25;100531.22;;;28.97;48.82
34931;BME280;21134;49.646;8.560;2022-08-05T10:44:54;100540.69;;;29.00;49.77
34931;BME280;21134;49.646;8.560;2022-08-05T10:47:30;100530.06;;;29.01;49.34
34931;BME280;21134;49.646;8.560;2022-08-05T10:50:03;100533.59;;;28.78;50.45
34931;BME280;21134;49.646;8.560;2022-08-05T10:52:39;100532.78;;;29.00;50.39
34931;BME280;21134;49.646;8.560;2022-08-05T10:55:08;100520.81;;;28.95;51.49
34931;BME280;21134;49.646;8.560;2022-08-05T10:57:35;100512.53;;;28.66;51.26
34931;BME280;21134;49.646;8.560;2022-08-05T11:00:07;100498.06;;;28.83;51.11
34931;BME280;21134;49.646;8.560;2022-08-05T11:02:36;100500.56;;;28.96;50.32
34931;BME280;21134;49.646;8.560;2022-08-05T11:05:05;100507.16;;;28.90;51.64
34931;BME280;21134;49.646;8.560;2022-08-05T11:07:32;100494.63;;;29.05;50.78
34931;BME280;21134;49.646;8.560;2022-08-05T11:10:00;100507.66;;;29.18;50.35
34931;BME280;21134;49.646;8.560;2022-08-05T11:12:46;100500.97;;;29.03;49.84
34931;BME280;21134;49.646;8.560;2022-08-05T11:15:18;100503.84;;;29.11;50.06
34931;BME280;21134;49.646;8.560;2022-08-05T11:17:46;100521.75;;;28.72;51.04
34931;BME280;21134;49.646;8.560;2022-08-05T11:20:37;100543.53;;;28.63;49.71
34931;BME280;21134;49.646;8.560;2022-08-05T11:23:35;100554.41;;;28.58;49.52
34931;BME280;21134;49.646;8.560;2022-08-05T11:26:06;100552.88;;;28.67;49.55
34931;BME280;21134;49.646;8.560;2022-08-05T11:28:45;100545.84;;;28.79;49.51
34931;BME280;21134;49.646;8.560;2022-08-05T11:34:01;100549.41;;;28.78;49.53
34931;BME280;21134;49.646;8.560;2022-08-05T11:36:49;100545.97;;;28.88;49.34
34931;BME280;21134;49.646;8.560;2022-08-05T11:39:45;100558.94;;;29.03;49.00
34931;BME280;21134;49.646;8.560;2022-08-05T11:42:12;100555.47;;;29.02;49.67
34931;BME280;21134;49.646;8.560;2022-08-05T11:44:39;100555.81;;;29.09;49.68
34931;BME280;21134;49.646;8.560;2022-08-05T11:47:06;100569.00;;;29.20;49.12
34931;BME280;21134;49.646;8.560;2022-08-05T11:49:34;100560.97;;;29.22;49.43
34931;BME280;21134;49.646;8.560;2022-08-05T11:52:01;100564.66;;;29.41;48.49
34931;BME280;21134;49.646;8.560;2022-08-05T11:54:29;100566.97;;;29.35;48.53
34931;BME280;21134;49.646;8.560;2022-08-05T11:56:58;100560.00;;;29.45;48.28
34931;BME280;21134;49.646;8.560;2022-08-05T11:59:28;100563.03;;;29.29;48.88
34931;BME280;21134;49.646;8.560;2022-08-05T12:01:57;100556.41;;;29.35;48.76
34931;BME280;21134;49.646;8.560;2022-08-05T12:04:24;100558.31;;;29.44;48.62
34931;BME280;21134;49.646;8.560;2022-08-05T12:06:53;100558.09;;;29.47;47.94
34931;BME280;21134;49.646;8.560;2022-08-05T12:09:23;100556.03;;;29.73;48.48
34931;BME280;21134;49.646;8.560;2022-08-05T12:11:51;100560.66;;;29.92;47.36
34931;BME280;21134;49.646;8.560;2022-08-05T12:14:18;100550.25;;;29.91;47.35
34931;BME280;21134;49.646;8.560;2022-08-05T12:16:46;100559.72;;;29.82;47.41
34931;BME280;21134;49.646;8.560;2022-08-05T12:19:14;100561.88;;;29.88;47.46
34931;BME280;21134;49.646;8.560;2022-08-05T12:21:43;100567.50;;;29.95;46.98
34931;BME280;21134;49.646;8.560;2022-08-05T12:24:14;100562.53;;;30.12;46.76
34931;BME280;21134;49.646;8.560;2022-08-05T12:26:43;100574.91;;;30.01;46.61
34931;BME280;21134;49.646;8.560;2022-08-05T12:29:11;100573.75;;;29.94;46.25
34931;BME280;21134;49.646;8.560;2022-08-05T12:31:39;100575.13;;;29.65;47.77
34931;BME280;21134;49.646;8.560;2022-08-05T12:34:07;100575.56;;;29.59;47.37
34931;BME280;21134;49.646;8.560;2022-08-05T12:36:34;100571.03;;;29.50;48.03
34931;BME280;21134;49.646;8.560;2022-08-05T12:39:02;100574.38;;;29.75;47.75
34931;BME280;21134;49.646;8.560;2022-08-05T12:41:32;100578.94;;;29.73;47.89
34931;BME280;21134;49.646;8.560;2022-08-05T12:44:00;100582.41;;;29.84;47.47
34931;BME280;21134;49.646;8.560;2022-08-05T12:46:29;100591.03;;;29.64;48.21
34931;BME280;21134;49.646;8.560;2022-08-05T12:48:58;100593.81;;;29.62;47.23
34931;BME280;21134;49.646;8.560;2022-08-05T12:51:25;100593.19;;;29.70;48.23
34931;BME280;21134;49.646;8.560;2022-08-05T12:54:00;100597.03;;;29.55;48.35
34931;BME280;21134;49.646;8.560;2022-08-05T12:56:28;100594.50;;;29.53;48.22
34931;BME280;21134;49.646;8.560;2022-08-05T12:59:13;100600.41;;;29.46;47.93
34931;BME280;21134;49.646;8.560;2022-08-05T13:01:40;100591.78;;;29.55;47.33